Time;durP1;ratioP1;P1;durP2;ratioP2;P2;SDS_P1;SDS_P2;PMS_P1;PMS_P2;Temp;Humidity;BMP_temperature;BMP_pressure;BME280_temperature;BME280_humidity;BME280_pressure;Samples;Min_cycle;Max_cycle;Signal;HPM_P1;HPM_P2
2021/03/29 00:02:14;;;;;;;4.40;2.10;;;;;;;;;;10558914;27;20293;-73
2021/03/29 00:07:16;;;;;;;5.30;2.00;;;;;;;;;;10575693;28;20206;-73
2021/03/29 00:12:19;;;;;;;5.07;2.00;;;;;;;;;;10573664;28;20226;-72
2021/03/29 00:17:21;;;;;;;4.50;2.00;;;;;;;;;;10579617;28;20225;-72
2021/03/29 00:22:22;;;;;;;6.77;2.33;;;;;;;;;;10572369;28;20222;-72
2021/03/29 00:27:25;;;;;;;5.07;2.00;;;;;;;;;;10579553;28;20218;-72
2021/03/29 00:32:27;;;;;;;4.70;2.30;;;;;;;;;;10545683;28;20206;-71
2021/03/29 00:37:28;;;;;;;6.80;2.30;;;;;;;;;;10561141;28;20187;-72
2021/03/29 00:42:31;;;;;;;6.30;2.33;;;;;;;;;;10565412;28;20211;-72
2021/03/29 00:47:33;;;;;;;6.30;2.47;;;;;;;;;;10581973;27;20251;-72
2021/03/29 00:52:34;;;;;;;7.00;2.40;;;;;;;;;;10575069;27;20212;-72
2021/03/29 00:57:37;;;;;;;6.50;2.37;;;;;;;;;;10591015;27;20194;-72
2021/03/29 01:02:39;;;;;;;6.50;2.13;;;;;;;;;;10577856;27;20238;-71
2021/03/29 01:07:42;;;;;;;6.87;2.47;;;;;;;;;;10555703;28;20277;-72
2021/03/29 01:12:45;;;;;;;6.60;2.57;;;;;;;;;;10585459;27;20296;-72
2021/03/29 01:17:48;;;;;;;7.10;2.30;;;;;;;;;;10576944;27;20190;-73
2021/03/29 01:22:51;;;;;;;7.67;2.70;;;;;;;;;;10556298;28;20367;-73
2021/03/29 01:27:55;;;;;;;5.97;2.50;;;;;;;;;;10565325;27;20245;-74
2021/03/29 01:32:58;;;;;;;6.30;2.40;;;;;;;;;;10577681;27;20749;-73
2021/03/29 01:38:03;;;;;;;5.13;2.40;;;;;;;;;;10562504;27;20214;-72
2021/03/29 01:43:06;;;;;;;6.47;2.53;;;;;;;;;;10574518;27;20223;-72
2021/03/29 01:48:09;;;;;;;5.80;2.23;;;;;;;;;;10585424;27;20194;-72
2021/03/29 01:53:11;;;;;;;5.57;2.40;;;;;;;;;;10551271;27;20226;-73
2021/03/29 01:58:14;;;;;;;5.13;2.00;;;;;;;;;;10579826;27;20202;-72
2021/03/29 02:03:16;;;;;;;6.20;2.60;;;;;;;;;;10571650;27;20210;-72
2021/03/29 02:08:19;;;;;;;6.00;2.40;;;;;;;;;;10580122;27;20539;-71
2021/03/29 02:13:23;;;;;;;8.53;2.90;;;;;;;;;;10576255;27;20250;-72
2021/03/29 02:18:26;;;;;;;6.17;2.60;;;;;;;;;;10555952;27;20195;-72
2021/03/29 02:23:29;;;;;;;5.93;2.30;;;;;;;;;;10571910;27;20207;-72
2021/03/29 02:28:31;;;;;;;6.80;2.43;;;;;;;;;;10561350;27;20260;-72
2021/03/29 02:33:33;;;;;;;5.83;2.37;;;;;;;;;;10599258;27;20215;-72
2021/03/29 02:38:35;;;;;;;6.10;2.40;;;;;;;;;;10584421;27;20223;-72
2021/03/29 02:43:39;;;;;;;9.03;2.60;;;;;;;;;;10581446;27;20223;-73
2021/03/29 02:48:42;;;;;;;4.37;2.20;;;;;;;;;;10584479;27;20266;-72
2021/03/29 02:53:45;;;;;;;4.30;2.30;;;;;;;;;;10585661;27;20222;-72
2021/03/29 02:58:51;;;;;;;8.10;2.40;;;;;;;;;;10573263;27;20202;-72
2021/03/29 03:03:53;;;;;;;6.67;2.63;;;;;;;;;;10581950;27;20210;-71
2021/03/29 03:08:55;;;;;;;6.53;2.53;;;;;;;;;;10561666;27;20281;-71
2021/03/29 03:13:58;;;;;;;7.63;2.63;;;;;;;;;;10581549;27;20572;-71
2021/03/29 03:18:59;;;;;;;6.60;2.67;;;;;;;;;;10555087;27;20289;-71
2021/03/29 03:24:03;;;;;;;6.17;2.30;;;;;;;;;;10579675;27;20248;-71
2021/03/29 03:29:06;;;;;;;6.30;2.60;;;;;;;;;;10577660;27;20195;-71
2021/03/29 03:34:07;;;;;;;5.80;2.30;;;;;;;;;;10549267;27;20412;-72
2021/03/29 03:39:09;;;;;;;6.20;2.50;;;;;;;;;;10576357;27;20194;-71
2021/03/29 03:44:12;;;;;;;4.40;2.23;;;;;;;;;;10576025;27;20268;-71
2021/03/29 03:49:16;;;;;;;5.80;2.60;;;;;;;;;;10574653;27;20303;-71
2021/03/29 03:54:18;;;;;;;5.20;2.40;;;;;;;;;;10582454;27;20261;-72
2021/03/29 03:59:22;;;;;;;5.07;2.40;;;;;;;;;;10549514;27;20294;-71
2021/03/29 04:04:24;;;;;;;4.93;2.30;;;;;;;;;;10580039;27;20241;-72
2021/03/29 04:09:33;;;;;;;5.33;2.20;;;;;;;;;;10580355;27;20187;-71
2021/03/29 04:14:36;;;;;;;5.00;2.07;;;;;;;;;;10559645;27;20219;-72
2021/03/29 04:19:37;;;;;;;6.10;2.60;;;;;;;;;;10579458;27;20202;-71
2021/03/29 04:24:39;;;;;;;6.23;2.20;;;;;;;;;;10574108;27;20238;-71
2021/03/29 04:29:41;;;;;;;5.27;2.20;;;;;;;;;;10571422;27;20223;-71
2021/03/29 04:34:44;;;;;;;5.17;2.10;;;;;;;;;;10587961;27;20235;-71
2021/03/29 04:39:45;;;;;;;5.53;2.03;;;;;;;;;;10589431;27;20195;-72
2021/03/29 04:44:48;;;;;;;4.53;2.10;;;;;;;;;;10589377;27;20223;-71
2021/03/29 04:49:50;;;;;;;4.97;1.93;;;;;;;;;;10581995;27;20310;-71
2021/03/29 04:54:51;;;;;;;6.07;2.20;;;;;;;;;;10566070;27;20211;-73
2021/03/29 04:59:54;;;;;;;5.27;2.07;;;;;;;;;;10594911;27;20643;-72
2021/03/29 05:04:55;;;;;;;5.37;2.10;;;;;;;;;;10595298;27;20239;-71
2021/03/29 05:09:57;;;;;;;5.63;2.10;;;;;;;;;;10590647;27;20285;-73
2021/03/29 05:15:00;;;;;;;5.13;1.83;;;;;;;;;;10584581;27;20397;-73
2021/03/29 05:20:04;;;;;;;7.70;2.40;;;;;;;;;;10582111;27;20195;-73
2021/03/29 05:25:06;;;;;;;5.67;2.10;;;;;;;;;;10584368;27;20240;-73
2021/03/29 05:30:10;;;;;;;8.10;2.50;;;;;;;;;;10590096;27;20293;-71
2021/03/29 05:35:11;;;;;;;7.00;2.40;;;;;;;;;;10583127;27;20717;-72
2021/03/29 05:40:17;;;;;;;4.93;2.03;;;;;;;;;;10581235;27;20236;-73
2021/03/29 05:45:19;;;;;;;7.93;2.30;;;;;;;;;;10595064;27;20322;-72
2021/03/29 05:50:21;;;;;;;5.37;2.17;;;;;;;;;;10586452;27;20555;-72
2021/03/29 05:55:29;;;;;;;7.80;2.30;;;;;;;;;;10587116;27;20251;-72
2021/03/29 06:00:39;;;;;;;9.73;2.43;;;;;;;;;;10568829;27;20266;-73
2021/03/29 06:05:41;;;;;;;6.03;2.30;;;;;;;;;;10585609;27;20670;-72
2021/03/29 06:10:44;;;;;;;5.77;2.10;;;;;;;;;;10577008;27;20203;-72
2021/03/29 06:15:46;;;;;;;9.80;2.63;;;;;;;;;;10576617;27;20222;-72
2021/03/29 06:20:59;;;;;;;10.17;2.70;;;;;;;;;;10573725;27;20345;-72
2021/03/29 06:26:19;;;;;;;6.07;2.40;;;;;;;;;;10573689;27;20210;-71
2021/03/29 06:31:22;;;;;;;8.47;2.70;;;;;;;;;;10551157;27;20230;-72
2021/03/29 06:36:34;;;;;;;7.30;2.73;;;;;;;;;;10576136;27;20270;-73
2021/03/29 06:41:36;;;;;;;11.43;3.10;;;;;;;;;;10575962;27;20314;-73
2021/03/29 06:46:38;;;;;;;7.23;2.60;;;;;;;;;;10577335;27;20295;-72
2021/03/29 06:51:42;;;;;;;10.53;2.90;;;;;;;;;;10583817;27;20228;-72
2021/03/29 06:56:45;;;;;;;5.93;2.50;;;;;;;;;;10576651;27;20305;-72
2021/03/29 07:01:48;;;;;;;5.63;2.47;;;;;;;;;;10565112;27;20672;-72
2021/03/29 07:06:50;;;;;;;4.97;2.30;;;;;;;;;;10558392;27;20538;-73
2021/03/29 07:11:52;;;;;;;6.70;2.47;;;;;;;;;;10574582;27;20313;-73
2021/03/29 07:16:55;;;;;;;4.97;2.30;;;;;;;;;;10566531;27;20318;-71
2021/03/29 07:21:57;;;;;;;9.47;2.53;;;;;;;;;;10574908;27;20289;-72
2021/03/29 07:26:59;;;;;;;4.30;1.93;;;;;;;;;;10581221;27;20276;-72
2021/03/29 07:32:05;;;;;;;6.53;2.47;;;;;;;;;;10542578;27;20289;-72
2021/03/29 07:37:21;;;;;;;7.93;2.63;;;;;;;;;;10576065;27;20227;-72
2021/03/29 07:42:33;;;;;;;6.53;2.55;;;;;;;;;;10570141;27;20355;-72
2021/03/29 07:47:39;;;;;;;6.20;2.92;;;;;;;;;;10567044;27;20222;-72
2021/03/29 07:52:41;;;;;;;6.30;2.17;;;;;;;;;;10577186;27;20630;-73
2021/03/29 07:58:03;;;;;;;5.65;2.38;;;;;;;;;;10575391;27;20209;-73
2021/03/29 08:03:20;;;;;;;6.03;2.10;;;;;;;;;;10582404;27;20219;-73
2021/03/29 08:08:39;;;;;;;5.72;2.40;;;;;;;;;;10570096;27;20236;-72
2021/03/29 08:13:41;;;;;;;4.95;2.30;;;;;;;;;;10549057;28;20688;-72
2021/03/29 08:19:03;;;;;;;4.65;2.42;;;;;;;;;;10553650;28;20240;-73
2021/03/29 08:24:06;;;;;;;4.95;2.58;;;;;;;;;;10537081;28;20564;-71
2021/03/29 08:29:16;;;;;;;4.38;2.40;;;;;;;;;;10582535;28;20262;-70
2021/03/29 08:34:18;;;;;;;5.00;2.47;;;;;;;;;;10564332;28;20211;-72
2021/03/29 08:39:21;;;;;;;5.65;2.38;;;;;;;;;;10566226;28;20271;-72
2021/03/29 08:44:22;;;;;;;4.90;2.33;;;;;;;;;;10567004;28;20215;-73
2021/03/29 08:49:25;;;;;;;5.43;2.30;;;;;;;;;;10557979;28;20191;-73
2021/03/29 08:54:27;;;;;;;8.50;2.90;;;;;;;;;;10541308;28;20211;-73
2021/03/29 08:59:29;;;;;;;5.05;2.50;;;;;;;;;;10580217;27;20191;-73
2021/03/29 09:04:32;;;;;;;5.38;2.50;;;;;;;;;;10565358;28;20207;-74
2021/03/29 09:09:34;;;;;;;73.43;12.10;;;;;;;;;;10587495;27;20203;-74
2021/03/29 09:14:39;;;;;;;23.13;4.70;;;;;;;;;;10579367;27;20226;-73
2021/03/29 09:19:45;;;;;;;5.60;2.58;;;;;;;;;;10579713;27;20199;-74
2021/03/29 09:25:10;;;;;;;4.53;2.38;;;;;;;;;;10549626;27;20222;-74
2021/03/29 09:30:24;;;;;;;6.03;2.83;;;;;;;;;;10563983;27;20643;-74
2021/03/29 09:35:44;;;;;;;10.85;2.85;;;;;;;;;;10512423;28;20223;-75
2021/03/29 09:40:47;;;;;;;5.70;2.70;;;;;;;;;;10500282;28;20814;-72
2021/03/29 09:45:51;;;;;;;6.45;2.75;;;;;;;;;;10519786;28;20650;-73
2021/03/29 09:56:33;;;;;;;5.85;2.90;;;;;;;;;;10487677;28;20218;-72
2021/03/29 10:01:44;;;;;;;5.95;2.95;;;;;;;;;;10512322;28;20203;-72
2021/03/29 10:07:00;;;;;;;5.10;2.58;;;;;;;;;;10501893;28;20220;-74
2021/03/29 10:12:14;;;;;;;5.97;2.60;;;;;;;;;;10510549;28;20191;-73
2021/03/29 10:17:27;;;;;;;7.47;2.78;;;;;;;;;;10536174;27;20186;-72
2021/03/29 10:22:36;;;;;;;4.95;2.67;;;;;;;;;;10552869;27;20242;-72
2021/03/29 10:27:43;;;;;;;4.70;2.63;;;;;;;;;;10567658;27;20279;-73
2021/03/29 10:32:52;;;;;;;5.85;2.75;;;;;;;;;;10579706;27;20214;-71
2021/03/29 10:38:02;;;;;;;6.78;2.92;;;;;;;;;;10550937;27;20187;-72
2021/03/29 10:43:22;;;;;;;6.65;3.15;;;;;;;;;;10553499;27;20238;-73
2021/03/29 10:48:31;;;;;;;3.50;2.10;;;;;;;;;;10561211;27;20610;-74
2021/03/29 10:53:45;;;;;;;5.43;2.40;;;;;;;;;;10562630;27;20477;-73
2021/03/29 10:59:03;;;;;;;4.88;2.50;;;;;;;;;;10555382;27;20195;-74
2021/03/29 11:04:14;;;;;;;3.95;2.60;;;;;;;;;;10587218;27;20222;-74
2021/03/29 11:09:40;;;;;;;5.65;2.50;;;;;;;;;;10558463;27;20612;-73
2021/03/29 11:14:52;;;;;;;5.82;2.80;;;;;;;;;;10550541;27;20309;-71
2021/03/29 11:20:06;;;;;;;7.07;2.88;;;;;;;;;;10550186;27;20590;-73
2021/03/29 11:25:19;;;;;;;4.38;2.53;;;;;;;;;;10548257;27;20218;-73
2021/03/29 11:30:26;;;;;;;6.13;2.60;;;;;;;;;;10551660;27;20240;-73
2021/03/29 11:35:37;;;;;;;4.97;2.60;;;;;;;;;;10572987;27;20674;-73
2021/03/29 11:40:39;;;;;;;8.68;2.95;;;;;;;;;;10578748;27;20623;-74
2021/03/29 11:45:41;;;;;;;4.15;2.47;;;;;;;;;;10577419;27;20307;-74
2021/03/29 11:50:43;;;;;;;4.80;2.70;;;;;;;;;;10567629;27;20191;-73
2021/03/29 11:55:45;;;;;;;5.10;2.28;;;;;;;;;;10543837;28;20305;-72
2021/03/29 12:00:51;;;;;;;4.75;2.30;;;;;;;;;;10572767;27;20602;-71
2021/03/29 12:05:55;;;;;;;3.25;2.38;;;;;;;;;;10570157;27;20237;-71
2021/03/29 12:16:20;;;;;;;4.25;2.20;;;;;;;;;;10560027;28;20210;-72
2021/03/29 12:21:23;;;;;;;4.80;2.30;;;;;;;;;;10570173;28;20191;-73
2021/03/29 12:26:26;;;;;;;4.25;2.20;;;;;;;;;;10572705;28;20232;-73
2021/03/29 12:31:28;;;;;;;4.88;2.53;;;;;;;;;;10575308;28;20225;-73
2021/03/29 12:36:33;;;;;;;7.95;4.20;;;;;;;;;;10572826;27;20219;-73
2021/03/29 12:41:39;;;;;;;4.68;2.60;;;;;;;;;;10561299;27;20260;-72
2021/03/29 12:46:43;;;;;;;6.22;2.72;;;;;;;;;;10581242;27;20693;-72
2021/03/29 12:51:45;;;;;;;5.93;2.40;;;;;;;;;;10552529;27;20224;-72
2021/03/29 12:56:46;;;;;;;4.22;2.30;;;;;;;;;;10574515;27;20294;-73
2021/03/29 13:01:49;;;;;;;6.47;2.60;;;;;;;;;;10574751;27;20278;-72
2021/03/29 13:06:58;;;;;;;4.85;2.80;;;;;;;;;;10577317;27;20293;-72
2021/03/29 13:12:03;;;;;;;7.95;3.00;;;;;;;;;;10556418;27;20301;-70
2021/03/29 13:17:06;;;;;;;5.50;2.60;;;;;;;;;;10557323;27;20275;-72
2021/03/29 13:22:07;;;;;;;6.13;2.47;;;;;;;;;;10570683;27;20270;-73
2021/03/29 13:27:09;;;;;;;6.13;2.35;;;;;;;;;;10571923;27;20301;-71
2021/03/29 13:32:12;;;;;;;6.95;2.53;;;;;;;;;;10557389;27;20210;-72
2021/03/29 13:37:13;;;;;;;5.43;2.17;;;;;;;;;;10608842;27;20222;-73
2021/03/29 13:42:15;;;;;;;5.25;2.28;;;;;;;;;;10579027;27;20410;-73
2021/03/29 13:47:23;;;;;;;5.50;2.60;;;;;;;;;;10569442;27;20267;-73
2021/03/29 13:52:24;;;;;;;6.65;2.60;;;;;;;;;;10572295;27;20218;-72
2021/03/29 13:57:26;;;;;;;4.90;2.25;;;;;;;;;;10543265;27;20194;-73
2021/03/29 14:02:29;;;;;;;4.82;2.30;;;;;;;;;;10574940;27;20282;-73
2021/03/29 14:07:31;;;;;;;6.60;2.58;;;;;;;;;;10555303;28;20649;-71
2021/03/29 14:12:32;;;;;;;6.47;2.10;;;;;;;;;;10572926;27;20340;-71
2021/03/29 14:17:35;;;;;;;5.03;2.15;;;;;;;;;;10572828;27;20195;-72
2021/03/29 14:22:37;;;;;;;5.00;2.22;;;;;;;;;;10565407;27;20276;-71
2021/03/29 14:27:39;;;;;;;4.45;1.90;;;;;;;;;;10571510;27;20219;-72
2021/03/29 14:32:41;;;;;;;7.43;2.13;;;;;;;;;;10552178;28;20305;-72
2021/03/29 14:43:04;;;;;;;4.60;2.00;;;;;;;;;;10533499;27;20222;-74
2021/03/29 14:48:06;;;;;;;4.80;1.70;;;;;;;;;;10551795;27;20698;-72
2021/03/29 14:53:08;;;;;;;4.90;1.88;;;;;;;;;;10560479;27;20225;-70
2021/03/29 14:58:10;;;;;;;4.53;2.30;;;;;;;;;;10568027;27;20205;-72
2021/03/29 15:03:15;;;;;;;6.50;2.42;;;;;;;;;;10553041;27;20542;-72
2021/03/29 15:08:17;;;;;;;5.22;2.10;;;;;;;;;;10556503;27;20584;-72
2021/03/29 15:13:19;;;;;;;5.30;2.53;;;;;;;;;;10569459;28;20219;-71
2021/03/29 15:18:22;;;;;;;5.63;2.22;;;;;;;;;;10568356;28;20518;-71
2021/03/29 15:23:24;;;;;;;5.05;2.30;;;;;;;;;;10566266;28;20738;-69
2021/03/29 15:28:26;;;;;;;7.35;2.35;;;;;;;;;;10569442;28;20294;-72
2021/03/29 15:33:28;;;;;;;5.43;2.10;;;;;;;;;;10566286;28;20238;-70
2021/03/29 15:38:30;;;;;;;3.92;1.90;;;;;;;;;;10569205;28;20655;-71
2021/03/29 15:43:32;;;;;;;12.52;6.57;;;;;;;;;;10567338;28;20555;-71
2021/03/29 15:48:34;;;;;;;4.82;2.30;;;;;;;;;;10557540;28;20643;-71
2021/03/29 15:53:37;;;;;;;6.85;2.35;;;;;;;;;;10562696;28;20242;-71
2021/03/29 15:58:39;;;;;;;8.48;3.17;;;;;;;;;;10541908;28;20523;-72
2021/03/29 16:03:43;;;;;;;5.38;1.80;;;;;;;;;;10566053;28;20218;-71
2021/03/29 16:08:45;;;;;;;5.82;1.77;;;;;;;;;;10567440;28;20227;-71
2021/03/29 16:13:47;;;;;;;6.80;1.90;;;;;;;;;;10559881;28;20313;-72
2021/03/29 16:18:49;;;;;;;4.28;1.88;;;;;;;;;;10565081;28;20252;-70
2021/03/29 16:23:51;;;;;;;4.37;2.20;;;;;;;;;;10564388;28;20215;-73
2021/03/29 16:28:53;;;;;;;5.43;2.37;;;;;;;;;;10561987;28;20186;-73
2021/03/29 16:33:56;;;;;;;4.73;2.00;;;;;;;;;;10563180;28;20264;-71
2021/03/29 16:38:57;;;;;;;5.37;1.80;;;;;;;;;;10558259;28;20270;-71
2021/03/29 16:43:59;;;;;;;5.03;2.03;;;;;;;;;;10560395;28;20222;-71
2021/03/29 16:49:04;;;;;;;6.93;2.20;;;;;;;;;;10557390;28;20282;-71
2021/03/29 16:54:12;;;;;;;8.27;4.70;;;;;;;;;;10559511;28;20682;-72
2021/03/29 16:59:15;;;;;;;4.97;2.20;;;;;;;;;;10539526;28;20194;-71
2021/03/29 17:04:20;;;;;;;6.90;2.47;;;;;;;;;;10562611;28;20260;-71
2021/03/29 17:09:21;;;;;;;6.00;2.27;;;;;;;;;;10541645;28;20349;-71
2021/03/29 17:14:23;;;;;;;6.30;2.23;;;;;;;;;;10558856;28;20259;-71
2021/03/29 17:19:26;;;;;;;10.80;2.93;;;;;;;;;;10563033;28;22004;-70
2021/03/29 17:24:27;;;;;;;7.57;2.20;;;;;;;;;;10549079;28;20203;-71
2021/03/29 17:29:40;;;;;;;5.83;2.83;;;;;;;;;;10575114;27;20251;-71
2021/03/29 17:34:42;;;;;;;6.13;2.20;;;;;;;;;;10581602;27;20203;-72
2021/03/29 17:39:44;;;;;;;4.73;2.07;;;;;;;;;;10566002;27;20222;-71
2021/03/29 17:44:46;;;;;;;5.63;2.80;;;;;;;;;;10552922;27;20329;-71
2021/03/29 17:49:49;;;;;;;6.67;2.20;;;;;;;;;;10547591;28;20225;-70
2021/03/29 17:54:50;;;;;;;7.83;2.77;;;;;;;;;;10568720;27;20279;-71
2021/03/29 17:59:52;;;;;;;8.40;2.10;;;;;;;;;;10570620;28;20235;-71
2021/03/29 18:04:54;;;;;;;7.60;3.03;;;;;;;;;;10572326;28;20228;-71
2021/03/29 18:09:56;;;;;;;12.63;4.00;;;;;;;;;;10551643;28;20203;-71
2021/03/29 18:14:58;;;;;;;9.67;3.10;;;;;;;;;;10568700;28;20620;-70
2021/03/29 18:20:06;;;;;;;9.10;3.30;;;;;;;;;;10566398;27;20200;-71
2021/03/29 18:25:09;;;;;;;10.63;3.43;;;;;;;;;;10562565;28;20207;-70
2021/03/29 18:30:11;;;;;;;10.37;3.07;;;;;;;;;;10581876;28;20203;-70
2021/03/29 18:35:14;;;;;;;11.80;4.60;;;;;;;;;;10564561;28;20734;-70
2021/03/29 18:40:16;;;;;;;8.70;3.57;;;;;;;;;;10579950;27;20711;-71
2021/03/29 18:45:17;;;;;;;12.10;4.53;;;;;;;;;;10570443;27;20245;-71
2021/03/29 18:50:20;;;;;;;9.07;3.67;;;;;;;;;;10574234;27;20191;-71
2021/03/29 18:55:26;;;;;;;9.43;3.53;;;;;;;;;;10572148;27;20229;-72
2021/03/29 19:00:47;;;;;;;10.13;4.03;;;;;;;;;;10560120;27;20245;-71
2021/03/29 19:05:52;;;;;;;11.50;5.00;;;;;;;;;;10572375;27;20222;-72
2021/03/29 19:10:53;;;;;;;9.83;3.63;;;;;;;;;;10573300;27;20285;-71
2021/03/29 19:16:03;;;;;;;9.73;3.60;;;;;;;;;;10550742;28;20599;-69
2021/03/29 19:21:07;;;;;;;12.00;4.03;;;;;;;;;;10563162;27;20524;-71
2021/03/29 19:26:14;;;;;;;10.87;3.73;;;;;;;;;;10567203;28;20708;-71
2021/03/29 19:31:16;;;;;;;13.20;5.03;;;;;;;;;;10567779;28;20275;-73
2021/03/29 19:36:18;;;;;;;12.87;5.30;;;;;;;;;;10585387;28;20210;-72
2021/03/29 19:41:20;;;;;;;12.33;5.00;;;;;;;;;;10581540;28;20231;-70
2021/03/29 19:46:21;;;;;;;13.57;5.47;;;;;;;;;;10565897;28;20222;-72
2021/03/29 19:51:24;;;;;;;11.40;4.63;;;;;;;;;;10562634;27;20723;-72
2021/03/29 19:56:26;;;;;;;10.63;5.50;;;;;;;;;;10565565;28;20683;-71
2021/03/29 20:01:29;;;;;;;16.97;7.70;;;;;;;;;;10563481;28;20209;-68
2021/03/29 20:06:37;;;;;;;15.53;6.00;;;;;;;;;;10545334;28;20215;-71
2021/03/29 20:11:39;;;;;;;13.77;6.10;;;;;;;;;;10544018;28;20199;-72
2021/03/29 20:16:42;;;;;;;12.77;6.43;;;;;;;;;;10546027;28;20211;-72
2021/03/29 20:21:44;;;;;;;15.20;6.27;;;;;;;;;;10565272;28;20191;-70
2021/03/29 20:26:46;;;;;;;15.27;6.10;;;;;;;;;;10566439;28;20249;-71
2021/03/29 20:31:48;;;;;;;14.63;6.20;;;;;;;;;;10565057;28;20324;-71
2021/03/29 20:36:53;;;;;;;15.37;5.83;;;;;;;;;;10564308;28;20209;-70
2021/03/29 20:41:55;;;;;;;13.47;6.20;;;;;;;;;;10561918;28;20274;-69
2021/03/29 20:47:00;;;;;;;14.77;6.30;;;;;;;;;;10561705;28;20738;-68
2021/03/29 20:52:05;;;;;;;16.53;6.67;;;;;;;;;;10566767;28;20202;-71
2021/03/29 20:57:08;;;;;;;13.47;5.67;;;;;;;;;;10548180;28;20195;-70
2021/03/29 21:02:12;;;;;;;15.47;6.80;;;;;;;;;;10574949;28;20641;-70
2021/03/29 21:07:15;;;;;;;12.50;6.10;;;;;;;;;;10571395;28;20268;-71
2021/03/29 21:12:16;;;;;;;14.53;6.40;;;;;;;;;;10574874;28;20199;-71
2021/03/29 21:17:18;;;;;;;16.97;7.00;;;;;;;;;;10588410;27;20197;-72
2021/03/29 21:22:20;;;;;;;16.97;6.97;;;;;;;;;;10574096;28;20290;-71
2021/03/29 21:27:22;;;;;;;12.73;5.37;;;;;;;;;;10573978;28;20583;-71
2021/03/29 21:32:24;;;;;;;10.27;5.10;;;;;;;;;;10570055;28;20727;-71
2021/03/29 21:37:29;;;;;;;11.67;5.07;;;;;;;;;;10573716;28;20261;-72
2021/03/29 21:42:31;;;;;;;12.50;4.70;;;;;;;;;;10568306;28;20226;-70
2021/03/29 21:47:33;;;;;;;11.10;4.00;;;;;;;;;;10564052;28;20234;-70
2021/03/29 21:52:36;;;;;;;8.57;3.43;;;;;;;;;;10559711;27;20270;-71
2021/03/29 21:57:38;;;;;;;9.53;4.10;;;;;;;;;;10541409;28;20254;-71
2021/03/29 22:02:42;;;;;;;9.97;3.67;;;;;;;;;;10572519;27;20211;-70
2021/03/29 22:07:45;;;;;;;7.93;3.80;;;;;;;;;;10568469;27;20222;-71
2021/03/29 22:12:46;;;;;;;8.10;3.70;;;;;;;;;;10569798;27;20230;-71
2021/03/29 22:17:48;;;;;;;7.80;3.40;;;;;;;;;;10550176;27;20283;-71
2021/03/29 22:22:51;;;;;;;7.37;3.37;;;;;;;;;;10562182;27;20238;-71
2021/03/29 22:28:00;;;;;;;6.57;3.00;;;;;;;;;;10580778;27;20218;-71
2021/03/29 22:33:09;;;;;;;8.10;3.27;;;;;;;;;;10578819;27;20294;-69
2021/03/29 22:43:32;;;;;;;7.17;2.77;;;;;;;;;;10553917;27;20344;-71
2021/03/29 22:48:33;;;;;;;6.93;2.83;;;;;;;;;;10561666;27;20222;-70
2021/03/29 22:53:38;;;;;;;6.50;2.83;;;;;;;;;;10570463;27;20674;-70
2021/03/29 22:58:40;;;;;;;7.67;3.13;;;;;;;;;;10561541;27;20199;-69
2021/03/29 23:03:42;;;;;;;6.83;2.90;;;;;;;;;;10573085;27;20230;-71
2021/03/29 23:08:45;;;;;;;6.93;2.63;;;;;;;;;;10575676;27;20279;-71
2021/03/29 23:13:47;;;;;;;4.77;2.40;;;;;;;;;;10576927;27;20222;-70
2021/03/29 23:18:49;;;;;;;7.93;2.67;;;;;;;;;;10568623;27;20266;-70
2021/03/29 23:23:52;;;;;;;5.80;2.70;;;;;;;;;;10584793;27;20237;-70
2021/03/29 23:28:54;;;;;;;5.40;2.40;;;;;;;;;;10569341;27;20230;-71
2021/03/29 23:33:56;;;;;;;6.67;2.83;;;;;;;;;;10580184;27;20219;-70
2021/03/29 23:38:58;;;;;;;6.97;2.50;;;;;;;;;;10578623;27;20222;-69
2021/03/29 23:44:00;;;;;;;5.67;2.47;;;;;;;;;;10591749;27;20271;-71
2021/03/29 23:49:05;;;;;;;5.97;2.50;;;;;;;;;;10568937;27;20683;-70
2021/03/29 23:54:08;;;;;;;7.37;2.50;;;;;;;;;;10570428;27;20321;-70
2021/03/29 23:59:09;;;;;;;6.70;2.60;;;;;;;;;;10557526;27;20747;-70
